createdAt,value
2023-10-18T00:04:46.260Z,60.40
2023-10-18T00:09:51.218Z,60.50
2023-10-18T00:14:56.257Z,60.20
2023-10-18T00:19:59.129Z,60.30
2023-10-18T00:25:02.154Z,60.40
2023-10-18T00:30:08.718Z,60.20
2023-10-18T00:35:20.057Z,60.50
2023-10-18T00:40:34.076Z,60.30
2023-10-18T00:45:45.263Z,60.10
2023-10-18T00:50:49.693Z,60.40
2023-10-18T00:55:58.794Z,60.30
2023-10-18T01:01:10.284Z,60.30
2023-10-18T01:06:18.294Z,60.30
2023-10-18T01:11:24.789Z,60.10
2023-10-18T01:16:31.844Z,60.40
2023-10-18T01:21:35.270Z,60.30
2023-10-18T01:26:40.300Z,60.40
2023-10-18T01:31:45.979Z,60.30
2023-10-18T01:36:50.395Z,60.50
2023-10-18T01:41:55.465Z,60.40
2023-10-18T01:47:01.212Z,60.10
2023-10-18T01:52:05.612Z,60.10
2023-10-18T01:57:13.184Z,60.00
2023-10-18T02:02:17.752Z,60.10
2023-10-18T02:07:20.630Z,60.30
2023-10-18T02:12:24.840Z,60.30
2023-10-18T02:17:28.417Z,60.30
2023-10-18T02:22:31.506Z,60.20
2023-10-18T02:27:37.752Z,60.30
2023-10-18T02:32:42.692Z,60.20
2023-10-18T02:37:45.743Z,60.50
2023-10-18T02:42:49.925Z,60.30
2023-10-18T02:47:53.475Z,60.40
2023-10-18T02:52:56.368Z,60.20
2023-10-18T02:58:00.932Z,60.30
2023-10-18T03:03:04.003Z,60.40
2023-10-18T03:08:09.678Z,60.60
2023-10-18T03:13:14.571Z,60.40
2023-10-18T03:18:19.997Z,60.30
2023-10-18T03:23:23.639Z,60.30
2023-10-18T03:28:35.139Z,60.40
2023-10-18T03:33:38.187Z,60.40
2023-10-18T03:38:42.748Z,60.40
2023-10-18T03:43:49.584Z,60.40
2023-10-18T03:48:55.706Z,60.60
2023-10-18T03:54:01.565Z,60.40
2023-10-18T03:59:20.411Z,60.40
2023-10-18T04:04:26.452Z,60.50
2023-10-18T04:09:30.866Z,60.50
2023-10-18T04:14:35.209Z,60.70
2023-10-18T04:19:38.166Z,60.70
2023-10-18T04:24:41.063Z,60.30
2023-10-18T04:29:48.502Z,60.50
2023-10-18T04:34:51.520Z,60.80
2023-10-18T04:39:54.736Z,60.60
2023-10-18T04:45:03.819Z,60.40
2023-10-18T04:50:12.880Z,60.30
2023-10-18T04:55:16.315Z,60.50
2023-10-18T05:00:36.302Z,60.80
2023-10-18T05:05:45.701Z,60.50
2023-10-18T05:10:51.179Z,60.60
2023-10-18T05:16:02.514Z,60.50
2023-10-18T05:21:09.486Z,60.60
2023-10-18T05:26:18.440Z,60.40
2023-10-18T05:31:28.366Z,60.60
2023-10-18T05:36:40.014Z,60.40
2023-10-18T05:41:49.469Z,60.40
2023-10-18T05:46:53.667Z,60.70
2023-10-18T05:52:00.274Z,60.80
2023-10-18T05:57:03.555Z,60.60
2023-10-18T06:02:12.314Z,60.50
2023-10-18T06:07:17.450Z,60.70
2023-10-18T06:12:23.996Z,60.70
2023-10-18T06:17:41.826Z,60.80
2023-10-18T06:22:48.347Z,63.00
2023-10-18T06:27:54.648Z,63.40
2023-10-18T06:32:59.051Z,63.80
2023-10-18T06:38:03.112Z,65.10
2023-10-18T06:43:07.825Z,63.70
2023-10-18T06:48:15.202Z,62.90
2023-10-18T06:53:18.193Z,62.50
2023-10-18T06:58:42.537Z,62.80
2023-10-18T07:03:46.851Z,62.80
2023-10-18T07:08:51.857Z,62.80
2023-10-18T07:13:55.735Z,62.80
2023-10-18T07:19:22.590Z,63.00
2023-10-18T07:24:34.713Z,63.30
2023-10-18T07:29:38.521Z,63.30
2023-10-18T07:34:44.023Z,63.40
2023-10-18T07:39:50.440Z,63.40
2023-10-18T07:44:56.459Z,63.40
2023-10-18T07:50:01.268Z,63.60
2023-10-18T07:55:06.392Z,63.60
2023-10-18T08:00:23.492Z,63.70
2023-10-18T08:05:32.818Z,63.80
2023-10-18T08:10:36.975Z,63.10
2023-10-18T08:15:51.296Z,62.90
2023-10-18T08:21:07.607Z,62.50
2023-10-18T08:26:10.669Z,62.60
2023-10-18T08:31:17.853Z,62.40
2023-10-18T08:36:30.340Z,62.20
2023-10-18T08:41:34.344Z,61.80
2023-10-18T08:46:42.853Z,61.90
2023-10-18T08:51:51.947Z,61.80
2023-10-18T08:56:54.958Z,61.80
2023-10-18T09:02:10.585Z,61.70
2023-10-18T09:07:43.699Z,61.80
2023-10-18T09:13:04.391Z,61.80
2023-10-18T09:18:07.662Z,61.80
2023-10-18T09:23:21.117Z,61.80
2023-10-18T09:28:33.973Z,61.90
2023-10-18T09:33:37.580Z,61.80
2023-10-18T09:38:42.723Z,62.10
2023-10-18T09:43:47.881Z,62.00
2023-10-18T09:48:50.704Z,61.80
2023-10-18T09:53:56.040Z,61.90
2023-10-18T09:59:06.732Z,62.00
2023-10-18T10:04:13.810Z,62.30
2023-10-18T10:09:20.757Z,61.80
2023-10-18T10:14:23.647Z,61.80
2023-10-18T10:19:30.267Z,62.00
2023-10-18T10:24:37.010Z,61.80
2023-10-18T10:29:42.235Z,61.40
2023-10-18T10:34:45.339Z,61.50
2023-10-18T10:39:51.938Z,62.00
2023-10-18T10:44:58.638Z,61.60
2023-10-18T10:50:02.233Z,61.50
2023-10-18T10:55:19.222Z,61.50
2023-10-18T11:00:38.335Z,61.60
2023-10-18T11:05:46.415Z,61.40
2023-10-18T11:10:50.618Z,62.20
2023-10-18T11:15:54.352Z,61.60
2023-10-18T11:21:06.719Z,63.00
2023-10-18T11:26:20.881Z,61.60
2023-10-18T11:31:28.121Z,61.60
2023-10-18T11:36:32.018Z,62.30
2023-10-18T11:41:37.304Z,61.60
2023-10-18T11:46:51.198Z,61.50
2023-10-18T11:51:55.229Z,61.50
2023-10-18T11:57:00.002Z,61.80
2023-10-18T12:02:06.140Z,62.00
2023-10-18T12:07:10.091Z,62.10
2023-10-18T12:12:15.325Z,62.50
2023-10-18T12:17:18.812Z,62.10
2023-10-18T12:22:25.023Z,62.10
2023-10-18T12:27:35.863Z,62.40
2023-10-18T12:32:43.701Z,62.20
2023-10-18T12:37:47.041Z,61.90
2023-10-18T12:42:51.404Z,62.20
2023-10-18T12:47:54.326Z,62.40
2023-10-18T12:53:17.957Z,62.00
2023-10-18T12:58:30.103Z,62.40
2023-10-18T13:03:35.327Z,62.10
2023-10-18T13:08:40.560Z,62.10
2023-10-18T13:13:46.666Z,62.50
2023-10-18T13:18:49.752Z,62.50
2023-10-18T13:23:57.387Z,62.60
2023-10-18T13:29:02.149Z,62.60
2023-10-18T13:34:08.033Z,62.70
2023-10-18T13:39:13.856Z,62.50
2023-10-18T13:44:20.557Z,62.80
2023-10-18T13:49:25.014Z,62.90
2023-10-18T13:54:30.262Z,63.00
2023-10-18T13:59:39.309Z,63.10
2023-10-18T14:04:46.708Z,62.90
2023-10-18T14:09:49.930Z,63.20
2023-10-18T14:14:54.155Z,63.40
2023-10-18T14:20:08.688Z,63.70
2023-10-18T14:25:17.981Z,63.50
2023-10-18T14:30:22.504Z,63.80
2023-10-18T14:35:26.606Z,63.70
2023-10-18T14:40:38.018Z,63.60
2023-10-18T14:45:44.153Z,63.70
2023-10-18T14:50:47.042Z,63.60
2023-10-18T14:55:50.252Z,63.60
2023-10-18T15:00:54.501Z,63.60
2023-10-18T15:05:57.356Z,63.90
2023-10-18T15:11:00.548Z,64.10
2023-10-18T15:16:07.900Z,64.10
2023-10-18T15:21:11.466Z,64.30
2023-10-18T15:26:17.961Z,64.40
2023-10-18T15:31:23.234Z,64.30
2023-10-18T15:36:26.307Z,64.30
2023-10-18T15:41:29.237Z,64.20
2023-10-18T15:46:37.809Z,64.60
2023-10-18T15:51:42.018Z,64.50
2023-10-18T15:56:45.850Z,64.30
2023-10-18T16:01:58.348Z,64.50
2023-10-18T16:07:02.674Z,64.40
2023-10-18T16:12:07.772Z,64.30
2023-10-18T16:17:15.453Z,64.50
2023-10-18T16:22:20.280Z,64.50
2023-10-18T16:27:24.465Z,64.70
2023-10-18T16:32:28.727Z,64.60
2023-10-18T16:37:31.578Z,64.70
2023-10-18T16:42:34.432Z,64.60
2023-10-18T16:47:38.809Z,64.60
2023-10-18T16:52:41.892Z,64.80
2023-10-18T16:57:44.770Z,64.70
2023-10-18T17:07:53.485Z,64.70
2023-10-18T17:12:56.392Z,64.80
2023-10-18T17:18:00.732Z,64.70
2023-10-18T17:23:04.013Z,64.70
2023-10-18T17:28:08.874Z,64.60
2023-10-18T17:33:15.381Z,64.70
2023-10-18T17:38:20.370Z,64.70
2023-10-18T17:43:24.046Z,64.70
2023-10-18T17:48:29.595Z,64.50
2023-10-18T17:53:33.951Z,64.70
2023-10-18T17:58:39.576Z,64.60
2023-10-18T18:03:44.413Z,64.40
2023-10-18T18:08:47.466Z,64.40
2023-10-18T18:13:50.783Z,64.60
2023-10-18T18:18:56.389Z,64.70
2023-10-18T18:23:59.212Z,64.50
2023-10-18T18:29:02.240Z,64.40
2023-10-18T18:34:06.559Z,64.50
2023-10-18T18:39:13.101Z,64.80
2023-10-18T18:44:16.075Z,64.60
2023-10-18T18:49:20.520Z,64.70
2023-10-18T18:54:23.518Z,64.70
2023-10-18T18:59:26.408Z,64.50
2023-10-18T19:04:30.621Z,64.50
2023-10-18T19:09:33.474Z,64.60
2023-10-18T19:14:36.584Z,64.80
2023-10-18T19:19:41.123Z,64.60
2023-10-18T19:24:44.003Z,64.50
2023-10-18T19:29:47.249Z,64.80
2023-10-18T19:34:51.966Z,64.50
2023-10-18T19:39:54.931Z,64.70
2023-10-18T19:44:58.200Z,64.50
2023-10-18T19:50:04.052Z,64.60
2023-10-18T19:55:08.756Z,64.60
2023-10-18T20:00:16.311Z,64.60
2023-10-18T20:05:20.624Z,64.40
2023-10-18T20:10:23.563Z,64.60
2023-10-18T20:15:26.492Z,64.50
2023-10-18T20:20:31.014Z,64.50
2023-10-18T20:25:34.344Z,64.70
2023-10-18T20:30:38.531Z,64.70
2023-10-18T20:35:43.223Z,64.70
2023-10-18T20:40:46.116Z,64.80
2023-10-18T20:45:50.037Z,65.30
2023-10-18T20:50:55.248Z,65.40
2023-10-18T20:55:58.826Z,65.30
2023-10-18T21:01:09.465Z,64.70
2023-10-18T21:06:19.211Z,65.10
2023-10-18T21:11:23.842Z,65.30
2023-10-18T21:16:27.825Z,64.80
2023-10-18T21:21:33.120Z,65.30
2023-10-18T21:26:36.005Z,65.30
2023-10-18T21:31:40.885Z,65.00
2023-10-18T21:36:45.378Z,65.10
2023-10-18T21:41:48.226Z,65.30
2023-10-18T21:46:51.132Z,65.30
2023-10-18T21:51:57.594Z,65.30
2023-10-18T21:57:02.380Z,65.30
2023-10-18T22:02:06.423Z,65.20
2023-10-18T22:07:16.054Z,64.70
2023-10-18T22:12:19.982Z,65.30
2023-10-18T22:17:26.093Z,65.30
2023-10-18T22:22:30.525Z,65.30
2023-10-18T22:27:39.081Z,65.30
2023-10-18T22:32:42.428Z,65.20
2023-10-18T22:37:47.751Z,65.40
2023-10-18T22:42:52.833Z,65.50
2023-10-18T22:48:00.027Z,65.30
2023-10-18T22:53:18.997Z,65.50
2023-10-18T22:58:27.079Z,65.30
2023-10-18T23:03:33.154Z,65.50
2023-10-18T23:08:38.772Z,65.30
2023-10-18T23:13:48.809Z,65.60
2023-10-18T23:18:56.026Z,65.50
2023-10-18T23:24:23.579Z,65.40
2023-10-18T23:29:33.536Z,65.20
2023-10-18T23:34:38.586Z,65.70
2023-10-18T23:39:44.299Z,65.40
2023-10-18T23:44:58.338Z,65.30
2023-10-18T23:50:02.199Z,65.60
2023-10-18T23:55:14.772Z,65.50
